KMLP - Mullan Pass
Updated: Sat, 18-Aug-2018 9:53am PDT
Clear
Clear
 Wind from varies
Wind: varies at 5 mph , 7 km/h
Temperature : 64°F , 18°C
Dew Point : 37°F , 3°C
Humidity : 37%
Barometer : 30.34 inHg , 1027.4 hPa
Clouds : Clear
Visibility : 10 miles , 16 km
2018/08/18 16:53 KMLP 181653Z AUTO VRB04KT 10SM CLR 18/03 A3034 RMK AO2 SLP177 T01830028

 

KCOE - Coeur d Alene
Updated: Sat, 18-Aug-2018 9:56am PDT
Clear
Clear
 Wind from calm
Wind: Calm
Temperature : 72°F , 22°C
Dew Point : 48°F , 9°C
Humidity : 44%
Barometer : 30.20 inHg , 1022.7 hPa
Clouds : Clear
Visibility : 10 miles , 16 km
2018/08/18 16:56 KCOE 181656Z AUTO 00000KT 10SM CLR 22/09 A3020 RMK AO2 SLP229 T02220089

 

KLWS - Lewiston
Updated: Sat, 18-Aug-2018 9:56am PDT
Clear
Clear
 Wind from calm
Wind: Calm
Temperature : 75°F , 24°C
Dew Point : 48°F , 9°C
Humidity : 39%
Barometer : 30.17 inHg , 1021.7 hPa
Clouds : Clear
Visibility : 10 miles , 16 km
2018/08/18 16:56 KLWS 181656Z 00000KT 10SM CLR 24/09 A3017 RMK AO2 SLP206 T02440089

 

KGEG - Spokane Intl
Updated: Sat, 18-Aug-2018 9:53am PDT
Mostly cloudy
Mostly cloudy
 Wind from SW
Wind: SW at 9 mph , 15 km/h
Temperature : 70°F , 21°C
Dew Point : 45°F , 7°C
Humidity : 40%
Barometer : 30.20 inHg , 1022.7 hPa
Clouds : Mostly cloudy
Visibility : 10 miles , 16 km
2018/08/18 16:53 KGEG 181653Z 22008KT 10SM BKN140 21/07 A3020 RMK AO2 SLP210 FU BKN140 T02110072